createdAt,value
2024-04-23T00:00:19.586Z,102350.31
2024-04-23T00:02:54.704Z,102357.84
2024-04-23T00:05:26.729Z,102351.56
2024-04-23T00:08:02.032Z,102351.47
2024-04-23T00:10:34.290Z,102347.19
2024-04-23T00:13:11.800Z,102346.97
2024-04-23T00:15:43.793Z,102340.75
2024-04-23T00:18:18.546Z,102343.69
2024-04-23T00:20:50.685Z,102331.63
2024-04-23T00:23:25.352Z,102333.50
2024-04-23T00:25:57.538Z,102327.91
2024-04-23T00:28:34.987Z,102331.81
2024-04-23T00:31:07.067Z,102326.44
2024-04-23T00:33:41.744Z,102317.25
2024-04-23T00:36:13.775Z,102314.22
2024-04-23T00:38:49.056Z,102313.63
2024-04-23T00:41:21.178Z,102313.88
2024-04-23T00:43:59.002Z,102310.16
2024-04-23T00:46:31.647Z,102309.16
2024-04-23T00:49:06.767Z,102314.13
2024-04-23T00:51:40.621Z,102299.94
2024-04-23T00:54:16.774Z,102304.28
2024-04-23T00:56:50.169Z,102301.78
2024-04-23T00:59:29.422Z,102298.78
2024-04-23T01:02:02.725Z,102302.91
2024-04-23T01:04:37.401Z,102298.69
2024-04-23T01:07:12.106Z,102294.84
2024-04-23T01:09:44.447Z,102289.84
2024-04-23T01:12:19.173Z,102290.75
2024-04-23T01:14:55.199Z,102286.88
2024-04-23T01:17:30.262Z,102284.81
2024-04-23T01:20:05.454Z,102280.91
2024-04-23T01:22:49.735Z,102278.22
2024-04-23T01:25:23.964Z,102281.78
2024-04-23T01:28:02.224Z,102271.34
2024-04-23T01:30:36.087Z,102276.16
2024-04-23T01:33:12.639Z,102280.78
2024-04-23T01:35:45.401Z,102276.44
2024-04-23T01:38:20.879Z,102269.66
2024-04-23T01:40:53.502Z,102274.66
2024-04-23T01:43:31.260Z,102271.56
2024-04-23T01:46:04.581Z,102267.75
2024-04-23T01:48:39.524Z,102264.44
2024-04-23T01:51:12.428Z,102262.75
2024-04-23T01:53:46.916Z,102265.13
2024-04-23T01:56:19.140Z,102248.94
2024-04-23T01:58:57.118Z,102260.72
2024-04-23T02:01:31.437Z,102252.28
2024-04-23T02:04:06.698Z,102257.56
2024-04-23T02:06:38.976Z,102255.50
2024-04-23T02:09:13.715Z,102253.22
2024-04-23T02:11:46.655Z,102262.03
2024-04-23T02:14:24.089Z,102262.81
2024-04-23T02:16:59.129Z,102261.31
2024-04-23T02:19:35.797Z,102260.53
2024-04-23T02:22:08.287Z,102256.41
2024-04-23T02:24:42.948Z,102258.47
2024-04-23T02:27:14.985Z,102254.16
2024-04-23T02:29:52.206Z,102247.97
2024-04-23T02:32:24.978Z,102249.38
2024-04-23T02:34:59.728Z,102242.28
2024-04-23T02:37:31.911Z,102241.34
2024-04-23T02:40:07.313Z,102240.66
2024-04-23T02:42:39.640Z,102232.66
2024-04-23T02:45:17.147Z,102226.44
2024-04-23T02:47:49.962Z,102229.06
2024-04-23T02:50:24.822Z,102217.25
2024-04-23T02:52:57.600Z,102220.03
2024-04-23T02:55:32.165Z,102215.22
2024-04-23T02:58:05.259Z,102220.81
2024-04-23T03:00:42.740Z,102221.88
2024-04-23T03:03:15.017Z,102220.16
2024-04-23T03:05:49.897Z,102216.25
2024-04-23T03:08:22.293Z,102216.25
2024-04-23T03:10:57.155Z,102215.25
2024-04-23T03:13:29.263Z,102217.53
2024-04-23T03:16:09.450Z,102215.59
2024-04-23T03:18:42.278Z,102212.47
2024-04-23T03:21:16.987Z,102206.44
2024-04-23T03:23:49.146Z,102207.22
2024-04-23T03:26:23.886Z,102208.25
2024-04-23T03:28:56.040Z,102203.91
2024-04-23T03:31:33.740Z,102199.78
2024-04-23T03:34:06.513Z,102201.63
2024-04-23T03:36:41.098Z,102199.66
2024-04-23T03:39:16.740Z,102199.56
2024-04-23T03:41:54.104Z,102199.34
2024-04-23T03:44:30.240Z,102205.94
2024-04-23T03:47:07.723Z,102207.78
2024-04-23T03:49:42.562Z,102200.56
2024-04-23T03:52:17.221Z,102201.72
2024-04-23T03:54:52.185Z,102199.91
2024-04-23T03:57:24.438Z,102202.44
2024-04-23T03:59:59.621Z,102196.59
2024-04-23T04:02:53.437Z,102201.50
2024-04-23T04:05:44.794Z,102196.22
2024-04-23T04:08:19.394Z,102204.22
2024-04-23T04:10:54.143Z,102200.56
2024-04-23T04:13:28.964Z,102198.50
2024-04-23T04:16:01.761Z,102199.06
2024-04-23T04:18:39.606Z,102197.16
2024-04-23T04:21:11.586Z,102199.00
2024-04-23T04:23:46.290Z,102197.75
2024-04-23T04:26:18.382Z,102193.03
2024-04-23T04:28:53.133Z,102203.09
2024-04-23T04:31:25.294Z,102188.91
2024-04-23T04:34:03.019Z,102192.31
2024-04-23T04:36:35.587Z,102188.91
2024-04-23T04:39:10.436Z,102183.84
2024-04-23T04:41:42.630Z,102194.72
2024-04-23T04:44:17.293Z,102190.59
2024-04-23T04:46:49.440Z,102198.97
2024-04-23T04:49:26.776Z,102194.50
2024-04-23T04:51:58.844Z,102186.59
2024-04-23T04:54:33.557Z,102191.84
2024-04-23T04:57:05.996Z,102188.28
2024-04-23T04:59:40.817Z,102186.72
2024-04-23T05:02:12.882Z,102187.44
2024-04-23T05:04:50.239Z,102182.53
2024-04-23T05:07:22.277Z,102185.06
2024-04-23T05:09:57.096Z,102189.53
2024-04-23T05:12:29.512Z,102189.53
2024-04-23T05:15:04.153Z,102188.41
2024-04-23T05:17:36.557Z,102193.09
2024-04-23T05:20:14.538Z,102197.66
2024-04-23T05:22:46.719Z,102193.16
2024-04-23T05:25:21.454Z,102202.91
2024-04-23T05:27:53.569Z,102196.47
2024-04-23T05:30:44.189Z,102205.84
2024-04-23T05:33:19.061Z,102198.09
2024-04-23T05:35:56.834Z,102201.75
2024-04-23T05:38:31.653Z,102208.81
2024-04-23T05:41:07.540Z,102196.91
2024-04-23T05:43:42.552Z,102203.44
2024-04-23T05:46:17.405Z,102200.19
2024-04-23T05:49:30.152Z,102200.00
2024-04-23T05:53:01.029Z,102199.19
2024-04-23T05:55:57.272Z,102192.50
2024-04-23T05:58:29.855Z,102197.94
2024-04-23T06:01:04.796Z,102199.88
2024-04-23T06:03:37.400Z,102204.22
2024-04-23T06:06:12.083Z,102205.75
2024-04-23T06:08:46.862Z,102200.28
2024-04-23T06:11:21.593Z,102205.81
2024-04-23T06:14:09.449Z,102203.44
2024-04-23T06:16:42.700Z,102201.03
2024-04-23T06:19:17.445Z,102202.09
2024-04-23T06:21:49.544Z,102198.75
2024-04-23T06:24:24.216Z,102201.84
2024-04-23T06:26:58.935Z,102198.16
2024-04-23T06:29:33.623Z,102196.09
2024-04-23T06:32:06.109Z,102192.91
2024-04-23T06:34:40.919Z,102187.91
2024-04-23T06:37:13.651Z,102184.69
2024-04-23T06:39:48.676Z,102189.53
2024-04-23T06:42:24.086Z,102195.00
2024-04-23T06:44:59.039Z,102188.97
2024-04-23T06:47:31.262Z,102182.22
2024-04-23T06:50:06.209Z,102175.81
2024-04-23T06:52:41.936Z,102183.28
2024-04-23T06:55:15.140Z,102187.28
2024-04-23T06:57:56.431Z,102184.53
2024-04-23T07:00:28.724Z,102180.66
2024-04-23T07:03:06.957Z,102180.22
2024-04-23T07:05:41.631Z,102183.19
2024-04-23T07:08:13.738Z,102181.34
2024-04-23T07:10:48.450Z,102178.03
2024-04-23T07:13:23.108Z,102178.63
2024-04-23T07:15:57.710Z,102175.16
2024-04-23T07:18:30.159Z,102170.56
2024-04-23T07:21:04.891Z,102173.78
2024-04-23T07:23:37.014Z,102171.72
2024-04-23T07:26:11.682Z,102176.16
2024-04-23T07:28:46.500Z,102170.22
2024-04-23T07:31:21.261Z,102171.88
2024-04-23T07:33:54.553Z,102169.59
2024-04-23T07:36:29.990Z,102162.69
2024-04-23T07:39:02.790Z,102175.69
2024-04-23T07:41:37.603Z,102170.38
2024-04-23T07:44:13.392Z,102173.34
2024-04-23T07:46:48.224Z,102178.41
2024-04-23T07:49:21.128Z,102173.28
2024-04-23T07:51:55.632Z,102173.56
2024-04-23T07:54:27.652Z,102166.00
2024-04-23T07:57:02.357Z,102161.84
2024-04-23T07:59:37.514Z,102166.19
2024-04-23T08:02:12.454Z,102165.66
2024-04-23T08:04:44.623Z,102164.06
2024-04-23T08:07:19.403Z,102158.25
2024-04-23T08:09:52.213Z,102164.94
2024-04-23T08:12:26.822Z,102156.38
2024-04-23T08:15:01.478Z,102154.94
2024-04-23T08:17:36.320Z,102157.19
2024-04-23T08:20:09.235Z,102144.69
2024-04-23T08:22:44.117Z,102148.78
2024-04-23T08:25:19.139Z,102154.63
2024-04-23T08:27:51.392Z,102149.25
2024-04-23T08:30:28.934Z,102156.63
2024-04-23T08:33:01.294Z,102142.19
2024-04-23T08:35:36.958Z,102142.25
2024-04-23T08:38:08.945Z,102147.75
2024-04-23T08:40:44.322Z,102151.19
2024-04-23T08:43:21.704Z,102144.72
2024-04-23T08:46:03.107Z,102138.06
2024-04-23T08:48:36.195Z,102133.28
2024-04-23T08:51:11.440Z,102139.72
2024-04-23T08:53:45.119Z,102127.69
2024-04-23T08:56:26.337Z,102131.38
2024-04-23T08:58:59.322Z,102129.13
2024-04-23T09:01:39.626Z,102125.41
2024-04-23T09:04:11.856Z,102122.03
2024-04-23T09:06:49.088Z,102104.03
2024-04-23T09:09:22.391Z,102119.56
2024-04-23T09:11:58.031Z,102120.50
2024-04-23T09:14:30.180Z,102122.63
2024-04-23T09:17:08.000Z,102108.66
2024-04-23T09:19:40.651Z,102099.75
2024-04-23T09:22:15.399Z,102108.91
2024-04-23T09:24:47.422Z,102109.00
2024-04-23T09:27:24.592Z,102099.38
2024-04-23T09:29:57.169Z,102096.47
2024-04-23T09:32:34.603Z,102090.28
2024-04-23T09:35:08.274Z,102087.69
2024-04-23T09:37:43.623Z,102086.19
2024-04-23T09:40:15.708Z,102091.06
2024-04-23T09:42:54.216Z,102083.69
2024-04-23T09:45:30.427Z,102085.41
2024-04-23T09:48:08.405Z,102076.03
2024-04-23T09:50:40.445Z,102073.34
2024-04-23T09:53:16.146Z,102075.09
2024-04-23T09:55:58.429Z,102060.44
2024-04-23T09:58:34.046Z,102062.81
2024-04-23T10:01:07.286Z,102051.53
2024-04-23T10:03:48.365Z,102059.59
2024-04-23T10:06:24.663Z,102059.81
2024-04-23T10:09:07.095Z,102063.81
2024-04-23T10:11:44.874Z,102053.25
2024-04-23T10:14:26.921Z,102056.09
2024-04-23T10:17:06.858Z,102055.84
2024-04-23T10:19:46.087Z,102056.28
2024-04-23T10:22:21.690Z,102052.38
2024-04-23T10:24:54.957Z,102054.69
2024-04-23T10:27:30.724Z,102054.03
2024-04-23T10:30:04.585Z,102042.56
2024-04-23T10:32:40.982Z,102044.56
2024-04-23T10:35:18.306Z,102048.25
2024-04-23T10:37:54.371Z,102048.72
2024-04-23T10:40:29.379Z,102045.59
2024-04-23T10:43:05.827Z,102047.97
2024-04-23T10:45:38.257Z,102036.84
2024-04-23T10:48:14.292Z,102036.84
2024-04-23T10:50:53.845Z,102034.53
2024-04-23T10:53:28.678Z,102029.69
2024-04-23T10:56:00.995Z,102039.19
2024-04-23T10:58:41.418Z,102039.63
2024-04-23T11:01:24.667Z,102041.22
2024-04-23T11:03:59.998Z,102025.00
2024-04-23T11:06:42.032Z,102025.84
2024-04-23T11:09:18.480Z,102022.66
2024-04-23T11:11:52.130Z,102022.66
2024-04-23T11:14:38.380Z,102022.25
2024-04-23T11:17:11.357Z,102019.09
2024-04-23T11:19:48.923Z,102015.50
2024-04-23T11:22:33.774Z,102010.34
2024-04-23T11:25:11.519Z,102016.28
2024-04-23T11:27:43.764Z,102002.75
2024-04-23T11:30:18.582Z,102002.00
2024-04-23T11:32:50.998Z,101998.75
2024-04-23T11:35:28.334Z,101993.16
2024-04-23T11:38:03.099Z,101991.16
2024-04-23T11:40:37.934Z,101983.19
2024-04-23T11:43:10.275Z,101985.91
2024-04-23T11:45:45.216Z,101994.19
2024-04-23T11:48:17.639Z,101988.94
2024-04-23T11:50:52.602Z,101987.31
2024-04-23T11:53:27.753Z,101979.38
2024-04-23T11:56:02.865Z,101984.16
2024-04-23T11:58:39.064Z,101976.91
2024-04-23T12:01:13.969Z,101971.66
2024-04-23T12:03:46.518Z,101978.47
2024-04-23T12:06:21.456Z,101979.19
2024-04-23T12:08:56.483Z,101972.53
2024-04-23T12:11:31.322Z,101969.19
2024-04-23T12:14:03.790Z,101969.91
2024-04-23T12:16:38.996Z,101972.88
2024-04-23T12:19:11.948Z,101974.53
2024-04-23T12:21:46.516Z,101966.41
2024-04-23T12:24:23.719Z,101954.09
2024-04-23T12:26:59.263Z,101956.16
2024-04-23T12:29:31.702Z,101949.91
2024-04-23T12:32:06.837Z,101954.50
2024-04-23T12:34:39.013Z,101954.69
2024-04-23T12:37:13.791Z,101954.47
2024-04-23T12:39:50.030Z,101951.56
2024-04-23T12:42:27.713Z,101946.78
2024-04-23T12:45:00.596Z,101941.88
2024-04-23T12:47:35.400Z,101939.00
2024-04-23T12:50:07.765Z,101931.06
2024-04-23T12:52:43.161Z,101931.19
2024-04-23T12:55:21.720Z,101927.63
2024-04-23T12:57:56.474Z,101925.88
2024-04-23T13:00:29.066Z,101923.69
2024-04-23T13:03:03.793Z,101918.81
2024-04-23T13:05:35.956Z,101911.59
2024-04-23T13:08:10.711Z,101907.78
2024-04-23T13:10:46.181Z,101906.63
2024-04-23T13:13:24.002Z,101906.34
2024-04-23T13:15:56.664Z,101898.38
2024-04-23T13:18:32.200Z,101894.34
2024-04-23T13:21:05.057Z,101893.34
2024-04-23T13:23:39.777Z,101893.03
2024-04-23T13:26:14.515Z,101885.31
2024-04-23T13:28:49.286Z,101883.06
2024-04-23T13:31:21.423Z,101883.47
2024-04-23T13:33:56.138Z,101886.56
2024-04-23T13:36:28.359Z,101875.25
2024-04-23T13:39:03.122Z,101880.13
2024-04-23T13:41:38.347Z,101873.47
2024-04-23T13:44:12.964Z,101864.22
2024-04-23T13:46:45.012Z,101866.75
2024-04-23T13:49:19.657Z,101855.41
2024-04-23T13:51:51.852Z,101852.59
2024-04-23T13:54:26.595Z,101851.94
2024-04-23T13:57:02.301Z,101840.03
2024-04-23T13:59:37.214Z,101840.25
2024-04-23T14:02:12.226Z,101838.44
2024-04-23T14:04:46.031Z,101836.56
2024-04-23T14:07:22.174Z,101839.38
2024-04-23T14:09:55.352Z,101834.69
2024-04-23T14:12:37.948Z,101828.41
2024-04-23T14:15:10.251Z,101826.84
2024-04-23T14:17:46.453Z,101825.28
2024-04-23T14:20:18.872Z,101822.56
2024-04-23T14:22:53.779Z,101814.78
2024-04-23T14:25:29.822Z,101813.56
2024-04-23T14:28:05.473Z,101804.75
2024-04-23T14:30:40.350Z,101814.25
2024-04-23T14:33:12.909Z,101807.69
2024-04-23T14:35:47.781Z,101807.81
2024-04-23T14:38:19.863Z,101809.38
2024-04-23T14:41:01.230Z,101811.59
2024-04-23T14:43:36.487Z,101812.47
2024-04-23T14:46:14.864Z,101803.19
2024-04-23T14:48:47.013Z,101800.50
2024-04-23T14:51:21.703Z,101808.22
2024-04-23T14:53:54.183Z,101797.47
2024-04-23T14:56:28.869Z,101786.78
2024-04-23T14:59:04.390Z,101783.63
2024-04-23T15:01:39.725Z,101779.00
2024-04-23T15:04:16.870Z,101784.09
2024-04-23T15:06:49.235Z,101768.16
2024-04-23T15:09:24.266Z,101771.84
2024-04-23T15:11:56.355Z,101765.25
2024-04-23T15:14:34.013Z,101762.19
2024-04-23T15:17:06.289Z,101766.22
2024-04-23T15:19:41.079Z,101749.81
2024-04-23T15:22:13.214Z,101740.66
2024-04-23T15:24:47.963Z,101736.66
2024-04-23T15:27:20.168Z,101745.72
2024-04-23T15:29:57.786Z,101738.66
2024-04-23T15:32:32.203Z,101733.25
2024-04-23T15:35:08.223Z,101735.88
2024-04-23T15:37:41.233Z,101729.22
2024-04-23T15:40:15.891Z,101725.84
2024-04-23T15:42:49.471Z,101725.34
2024-04-23T15:45:27.181Z,101722.44
2024-04-23T15:47:59.715Z,101718.56
2024-04-23T15:50:36.832Z,101720.72
2024-04-23T15:53:11.660Z,101716.16
2024-04-23T15:55:48.477Z,101712.84
2024-04-23T15:58:21.174Z,101703.47
2024-04-23T16:01:05.337Z,101708.56
2024-04-23T16:03:38.556Z,101707.88
2024-04-23T16:06:17.391Z,101702.56
2024-04-23T16:08:53.595Z,101699.97
2024-04-23T16:11:28.486Z,101700.94
2024-04-23T16:14:02.710Z,101700.19
2024-04-23T16:16:40.298Z,101691.91
2024-04-23T16:19:12.801Z,101697.41
2024-04-23T16:21:48.208Z,101703.22
2024-04-23T16:24:20.368Z,101690.41
2024-04-23T16:26:56.577Z,101697.66
2024-04-23T16:29:29.724Z,101691.38
2024-04-23T16:32:07.129Z,101679.91
2024-04-23T16:34:39.385Z,101678.28
2024-04-23T16:37:14.753Z,101677.22
2024-04-23T16:39:46.864Z,101675.53
2024-04-23T16:42:22.063Z,101660.53
2024-04-23T16:44:54.076Z,101664.91
2024-04-23T16:47:31.619Z,101638.97
2024-04-23T16:50:04.046Z,101646.19
2024-04-23T16:52:39.368Z,101642.75
2024-04-23T16:55:12.066Z,101634.25
2024-04-23T16:57:48.129Z,101630.50
2024-04-23T17:00:23.799Z,101615.66
2024-04-23T17:03:01.912Z,101616.72
2024-04-23T17:05:34.432Z,101611.25
2024-04-23T17:08:10.378Z,101614.97
2024-04-23T17:10:45.002Z,101609.72
2024-04-23T17:13:21.566Z,101604.16
2024-04-23T17:15:56.302Z,101606.88
2024-04-23T17:18:31.578Z,101601.66
2024-04-23T17:21:14.014Z,101602.16
2024-04-23T17:23:47.281Z,101599.38
2024-04-23T17:26:22.247Z,101604.06
2024-04-23T17:28:57.181Z,101586.16
2024-04-23T17:31:33.532Z,101585.13
2024-04-23T17:34:08.381Z,101584.91
2024-04-23T17:36:43.194Z,101579.19
2024-04-23T17:39:16.010Z,101589.78
2024-04-23T17:41:53.308Z,101580.19
2024-04-23T17:44:25.588Z,101584.28
2024-04-23T17:47:01.056Z,101576.56
2024-04-23T17:49:35.817Z,101576.09
2024-04-23T17:52:10.680Z,101570.16
2024-04-23T17:54:45.360Z,101570.88
2024-04-23T17:57:20.160Z,101580.56
2024-04-23T17:59:52.394Z,101575.88
2024-04-23T18:02:27.307Z,101577.69
2024-04-23T18:05:02.799Z,101566.72
2024-04-23T18:07:38.153Z,101561.75
2024-04-23T18:10:10.588Z,101566.72
2024-04-23T18:12:46.384Z,101569.75
2024-04-23T18:15:21.947Z,101566.28
2024-04-23T18:17:56.899Z,101557.16
2024-04-23T18:20:33.696Z,101562.78
2024-04-23T18:23:08.564Z,101561.69
2024-04-23T18:25:44.240Z,101566.16
2024-04-23T18:28:19.502Z,101563.59
2024-04-23T18:31:00.128Z,101561.31
2024-04-23T18:33:32.372Z,101570.63
2024-04-23T18:36:10.879Z,101569.78
2024-04-23T18:38:42.950Z,101567.75
2024-04-23T18:41:18.473Z,101560.34
2024-04-23T18:43:51.636Z,101561.09
2024-04-23T18:46:27.152Z,101559.25
2024-04-23T18:48:59.411Z,101566.31
2024-04-23T18:51:37.376Z,101563.38
2024-04-23T18:54:09.863Z,101570.50
2024-04-23T18:56:45.119Z,101568.69
2024-04-23T18:59:18.014Z,101573.69
2024-04-23T19:01:52.935Z,101578.44
2024-04-23T19:04:25.376Z,101561.75
2024-04-23T19:07:03.079Z,101570.56
2024-04-23T19:09:35.276Z,101562.63
2024-04-23T19:12:10.406Z,101566.53
2024-04-23T19:14:42.925Z,101567.41
2024-04-23T19:17:17.874Z,101568.31
2024-04-23T19:19:50.164Z,101568.22
2024-04-23T19:22:27.562Z,101568.63
2024-04-23T19:24:59.706Z,101563.88
2024-04-23T19:27:36.133Z,101559.53
2024-04-23T19:30:09.925Z,101565.94
2024-04-23T19:32:45.357Z,101560.38
2024-04-23T19:35:20.113Z,101564.75
2024-04-23T19:37:57.928Z,101563.53
2024-04-23T19:40:30.370Z,101557.59
2024-04-23T19:43:05.297Z,101550.50
2024-04-23T19:45:38.343Z,101552.91
2024-04-23T19:48:13.079Z,101547.75
2024-04-23T19:50:45.257Z,101550.88
2024-04-23T19:53:24.223Z,101560.44
2024-04-23T19:55:56.538Z,101561.22
2024-04-23T19:58:48.046Z,101564.47
2024-04-23T20:01:23.033Z,101568.41
2024-04-23T20:03:58.928Z,101558.09
2024-04-23T20:06:35.564Z,101550.19
2024-04-23T20:09:15.377Z,101544.69
2024-04-23T20:11:51.371Z,101551.00
2024-04-23T20:14:26.498Z,101549.81
2024-04-23T20:17:02.978Z,101552.22
2024-04-23T20:19:37.752Z,101552.59
2024-04-23T20:22:12.679Z,101550.22
2024-04-23T20:24:50.032Z,101547.84
2024-04-23T20:27:24.624Z,101546.25
2024-04-23T20:29:59.585Z,101537.19
2024-04-23T20:32:34.441Z,101539.16
2024-04-23T20:35:10.170Z,101540.75
2024-04-23T20:37:44.921Z,101537.97
2024-04-23T20:40:23.301Z,101538.00
2024-04-23T20:42:58.307Z,101543.91
2024-04-23T20:45:33.390Z,101535.19
2024-04-23T20:48:09.070Z,101538.41
2024-04-23T20:50:44.121Z,101536.81
2024-04-23T20:53:18.811Z,101543.56
2024-04-23T20:55:56.353Z,101536.00
2024-04-23T20:58:31.307Z,101543.13
2024-04-23T21:01:11.810Z,101543.13
2024-04-23T21:03:47.049Z,101535.63
2024-04-23T21:06:22.216Z,101527.31
2024-04-23T21:08:57.470Z,101524.53
2024-04-23T21:11:35.909Z,101520.19
2024-04-23T21:14:10.930Z,101519.34
2024-04-23T21:16:46.170Z,101533.63
2024-04-23T21:19:26.089Z,101527.31
2024-04-23T21:22:01.158Z,101528.91
2024-04-23T21:24:35.831Z,101519.41
2024-04-23T21:27:10.982Z,101514.25
2024-04-23T21:29:45.750Z,101519.41
2024-04-23T21:32:20.794Z,101516.59
2024-04-23T21:34:56.008Z,101510.69
2024-04-23T21:37:31.257Z,101509.09
2024-04-23T21:40:06.445Z,101511.47
2024-04-23T21:42:44.185Z,101510.69
2024-04-23T21:45:18.914Z,101516.97
2024-04-23T21:47:54.591Z,101504.72
2024-04-23T21:50:29.614Z,101513.00
2024-04-23T21:53:04.729Z,101518.16
2024-04-23T21:55:39.435Z,101503.19
2024-04-23T21:58:17.445Z,101496.41
2024-04-23T22:00:52.350Z,101494.03
2024-04-23T22:03:27.269Z,101491.66
2024-04-23T22:06:02.103Z,101483.75
2024-04-23T22:09:08.034Z,101484.56
2024-04-23T22:11:43.777Z,101482.53
2024-04-23T22:14:21.488Z,101481.72
2024-04-23T22:16:56.328Z,101478.97
2024-04-23T22:19:31.296Z,101473.06
2024-04-23T22:22:06.100Z,101478.56
2024-04-23T22:24:42.971Z,101477.38
2024-04-23T22:27:17.981Z,101488.09
2024-04-23T22:30:20.834Z,101493.22
2024-04-23T22:33:41.354Z,101478.13
2024-04-23T22:43:49.427Z,101475.31
2024-04-23T22:46:45.701Z,101457.22
2024-04-23T22:49:38.620Z,101451.19
2024-04-23T22:52:13.353Z,101458.28
2024-04-23T22:55:06.932Z,101447.59
2024-04-23T22:58:34.920Z,101448.81
2024-04-23T23:01:47.523Z,101453.59
2024-04-23T23:05:20.762Z,101439.34
2024-04-23T23:08:16.983Z,101431.47
2024-04-23T23:11:10.081Z,101434.59
2024-04-23T23:14:22.218Z,101424.31
2024-04-23T23:17:18.054Z,101428.16
2024-04-23T23:20:09.131Z,101421.16
2024-04-23T23:22:44.990Z,101425.06
2024-04-23T23:25:23.427Z,101414.84
2024-04-23T23:27:58.224Z,101410.13
2024-04-23T23:30:33.026Z,101395.06
2024-04-23T23:33:08.384Z,101408.16
2024-04-23T23:35:43.506Z,101406.13
2024-04-23T23:38:18.680Z,101401.44
2024-04-23T23:40:56.662Z,101421.06
2024-04-23T23:43:32.055Z,101422.69
2024-04-23T23:46:09.298Z,101402.91
2024-04-23T23:48:44.443Z,101404.44
2024-04-23T23:51:19.280Z,101404.78
2024-04-23T23:53:53.964Z,101401.69
2024-04-23T23:56:31.870Z,101395.34
2024-04-23T23:59:07.292Z,101392.13
